Time;durP1;ratioP1;P1;durP2;ratioP2;P2;SDS_P1;SDS_P2;PMS_P1;PMS_P2;Temp;Humidity;BMP_temperature;BMP_pressure;BME280_temperature;BME280_humidity;BME280_pressure;Samples;Min_cycle;Max_cycle;Signal;HPM_P1;HPM_P2
2023/12/04 00:01:34;;;;;;;;;;;;;;;;;;5049711;28;19967;-53
2023/12/04 00:04:00;;;;;;;;;;;;;;;;;;5049764;28;19952;-53
2023/12/04 00:06:26;;;;;;;;;;;;;;;;;;5048552;28;20338;-52
2023/12/04 00:08:52;;;;;;;;;;;;;;;;;;5048820;28;19952;-53
2023/12/04 00:11:18;;;;;;;;;;;;;;;;;;5049104;28;20391;-52
2023/12/04 00:13:44;;;;;;;;;;;;;;;;;;5047919;28;19921;-53
2023/12/04 00:16:10;;;;;;;;;;;;;;;;;;5050199;28;20005;-53
2023/12/04 00:18:36;;;;;;;;;;;;;;;;;;5050106;28;19913;-53
2023/12/04 00:21:02;;;;;;;;;;;;;;;;;;5048979;28;19917;-52
2023/12/04 00:23:28;;;;;;;;;;;;;;;;;;5048363;28;19923;-52
2023/12/04 00:25:54;;;;;;;;;;;;;;;;;;5049147;28;19948;-52
2023/12/04 00:28:20;;;;;;;;;;;;;;;;;;5048859;28;19959;-51
2023/12/04 00:30:46;;;;;;;;;;;;;;;;;;5049125;28;19964;-52
2023/12/04 00:33:12;;;;;;;;;;;;;;;;;;5048733;28;19971;-52
2023/12/04 00:35:38;;;;;;;;;;;;;;;;;;5049113;28;19913;-52
2023/12/04 00:38:04;;;;;;;;;;;;;;;;;;5048395;28;19963;-52
2023/12/04 00:40:30;;;;;;;;;;;;;;;;;;5048812;28;19944;-52
2023/12/04 00:42:56;;;;;;;;;;;;;;;;;;5047984;28;19956;-52
2023/12/04 00:45:22;;;;;;;;;;;;;;;;;;5049352;28;20042;-52
2023/12/04 00:47:47;;;;;;;;;;;;;;;;;;5049720;28;19917;-52
2023/12/04 00:50:13;;;;;;;;;;;;;;;;;;5049197;28;20218;-52
2023/12/04 00:52:39;;;;;;;;;;;;;;;;;;5047930;28;20027;-52
2023/12/04 00:55:05;;;;;;;;;;;;;;;;;;5048639;28;20001;-52
2023/12/04 00:57:31;;;;;;;;;;;;;;;;;;5051099;28;19956;-52
2023/12/04 00:59:57;;;;;;;;;;;;;;;;;;5052444;28;20408;-52
2023/12/04 01:02:23;;;;;;;;;;;;;;;;;;5051961;28;19955;-52
2023/12/04 01:04:49;;;;;;;;;;;;;;;;;;5051636;28;20210;-52
2023/12/04 01:07:15;;;;;;;;;;;;;;;;;;5051139;28;19956;-52
2023/12/04 01:09:41;;;;;;;;;;;;;;;;;;5050463;28;19951;-52
2023/12/04 01:12:07;;;;;;;;;;;;;;;;;;5048001;28;19948;-52
2023/12/04 01:14:33;;;;;;;;;;;;;;;;;;5059336;28;20417;-52
2023/12/04 01:16:59;;;;;;;;;;;;;;;;;;5048142;28;19948;-52
2023/12/04 01:19:25;;;;;;;;;;;;;;;;;;5049491;28;19969;-52
2023/12/04 01:21:51;;;;;;;;;;;;;;;;;;5051980;28;19963;-52
2023/12/04 01:24:17;;;;;;;;;;;;;;;;;;5052365;28;19936;-52
2023/12/04 01:26:43;;;;;;;;;;;;;;;;;;5084091;28;19917;-52
2023/12/04 01:29:09;;;;;;;;;;;;;;;;;;5051968;28;19974;-52
2023/12/04 01:31:35;;;;;;;;;;;;;;;;;;5048146;28;19952;-51
2023/12/04 01:34:01;;;;;;;;;;;;;;;;;;5052574;28;19971;-52
2023/12/04 01:36:27;;;;;;;;;;;;;;;;;;5051733;28;20391;-52
2023/12/04 01:38:53;;;;;;;;;;;;;;;;;;5052302;28;19962;-53
2023/12/04 01:41:19;;;;;;;;;;;;;;;;;;5051765;28;19955;-48
2023/12/04 01:43:45;;;;;;;;;;;;;;;;;;5052501;28;19960;-48
2023/12/04 01:46:10;;;;;;;;;;;;;;;;;;5052347;28;20018;-50
2023/12/04 01:48:36;;;;;;;;;;;;;;;;;;5052291;28;19952;-49
2023/12/04 01:51:02;;;;;;;;;;;;;;;;;;5051682;28;19960;-48
2023/12/04 01:53:28;;;;;;;;;;;;;;;;;;5050977;28;20343;-49
2023/12/04 01:55:54;;;;;;;;;;;;;;;;;;5052251;28;19959;-50
2023/12/04 01:58:20;;;;;;;;;;;;;;;;;;5051685;28;19955;-48
2023/12/04 02:00:46;;;;;;;;;;;;;;;;;;5051938;28;19948;-51
2023/12/04 02:03:12;;;;;;;;;;;;;;;;;;5051615;28;19948;-49
2023/12/04 02:05:38;;;;;;;;;;;;;;;;;;5051836;28;20451;-49
2023/12/04 02:08:04;;;;;;;;;;;;;;;;;;5050868;28;20379;-49
2023/12/04 02:10:30;;;;;;;;;;;;;;;;;;5051986;28;19923;-51
2023/12/04 02:12:56;;;;;;;;;;;;;;;;;;5050566;28;20001;-49
2023/12/04 02:15:22;;;;;;;;;;;;;;;;;;5048227;28;19913;-50
2023/12/04 02:17:48;;;;;;;;;;;;;;;;;;5052036;28;20365;-50
2023/12/04 02:20:14;;;;;;;;;;;;;;;;;;5051250;28;20023;-50
2023/12/04 02:22:40;;;;;;;;;;;;;;;;;;5049296;28;20015;-50
2023/12/04 02:25:06;;;;;;;;;;;;;;;;;;5052020;28;20011;-49
2023/12/04 02:27:32;;;;;;;;;;;;;;;;;;5050505;28;19995;-49
2023/12/04 02:29:58;;;;;;;;;;;;;;;;;;5051793;28;19944;-49
2023/12/04 02:32:23;;;;;;;;;;;;;;;;;;5051151;28;19944;-50
2023/12/04 02:34:49;;;;;;;;;;;;;;;;;;5052214;28;20376;-50
2023/12/04 02:37:15;;;;;;;;;;;;;;;;;;5050013;28;19963;-50
2023/12/04 02:39:41;;;;;;;;;;;;;;;;;;5050791;28;19964;-50
2023/12/04 02:42:07;;;;;;;;;;;;;;;;;;5050104;28;19975;-49
2023/12/04 02:44:33;;;;;;;;;;;;;;;;;;5051543;28;19978;-50
2023/12/04 02:46:59;;;;;;;;;;;;;;;;;;5050040;28;19952;-49
2023/12/04 02:49:25;;;;;;;;;;;;;;;;;;5050882;28;19955;-49
2023/12/04 02:51:51;;;;;;;;;;;;;;;;;;5049770;28;19987;-53
2023/12/04 02:54:17;;;;;;;;;;;;;;;;;;5048979;28;19916;-52
2023/12/04 02:56:43;;;;;;;;;;;;;;;;;;5048849;28;19956;-53
2023/12/04 02:59:09;;;;;;;;;;;;;;;;;;5049831;28;20334;-53
2023/12/04 03:01:35;;;;;;;;;;;;;;;;;;5047046;28;19956;-52
2023/12/04 03:04:01;;;;;;;;;;;;;;;;;;5049628;28;19956;-53
2023/12/04 03:06:27;;;;;;;;;;;;;;;;;;5049268;28;19955;-53
2023/12/04 03:08:52;;;;;;;;;;;;;;;;;;5050147;28;19955;-53
2023/12/04 03:11:18;;;;;;;;;;;;;;;;;;5048569;28;19955;-53
2023/12/04 03:13:44;;;;;;;;;;;;;;;;;;5048728;28;19979;-53
2023/12/04 03:16:10;;;;;;;;;;;;;;;;;;5048898;28;20092;-52
2023/12/04 03:18:36;;;;;;;;;;;;;;;;;;5049735;28;20446;-53
2023/12/04 03:21:02;;;;;;;;;;;;;;;;;;5049722;28;20381;-53
2023/12/04 03:23:28;;;;;;;;;;;;;;;;;;5054596;28;19963;-52
2023/12/04 03:25:54;;;;;;;;;;;;;;;;;;5059753;28;19968;-52
2023/12/04 03:28:20;;;;;;;;;;;;;;;;;;5046162;28;19964;-52
2023/12/04 03:30:46;;;;;;;;;;;;;;;;;;5049232;28;19959;-52
2023/12/04 03:33:12;;;;;;;;;;;;;;;;;;5048792;28;19964;-52
2023/12/04 03:35:38;;;;;;;;;;;;;;;;;;5049920;28;19960;-52
2023/12/04 03:38:04;;;;;;;;;;;;;;;;;;5049519;28;19951;-52
2023/12/04 03:40:29;;;;;;;;;;;;;;;;;;5049683;28;20332;-53
2023/12/04 03:42:55;;;;;;;;;;;;;;;;;;5048925;28;19917;-53
2023/12/04 03:45:21;;;;;;;;;;;;;;;;;;5050077;28;19956;-52
2023/12/04 03:47:47;;;;;;;;;;;;;;;;;;5049798;28;20022;-52
2023/12/04 03:50:13;;;;;;;;;;;;;;;;;;5050356;28;20463;-52
2023/12/04 03:52:39;;;;;;;;;;;;;;;;;;5049279;28;19970;-52
2023/12/04 03:55:05;;;;;;;;;;;;;;;;;;5049970;28;19968;-52
2023/12/04 03:57:31;;;;;;;;;;;;;;;;;;5047749;28;19967;-52
2023/12/04 03:59:57;;;;;;;;;;;;;;;;;;5049496;28;20418;-52
2023/12/04 04:02:23;;;;;;;;;;;;;;;;;;5049242;28;19956;-53
2023/12/04 04:04:49;;;;;;;;;;;;;;;;;;5049196;28;19948;-58
2023/12/04 04:07:15;;;;;;;;;;;;;;;;;;5049073;28;19952;-53
2023/12/04 04:09:41;;;;;;;;;;;;;;;;;;5049601;28;19970;-53
2023/12/04 04:12:07;;;;;;;;;;;;;;;;;;5048855;28;19949;-52
2023/12/04 04:14:33;;;;;;;;;;;;;;;;;;5049521;28;19964;-54
2023/12/04 04:16:58;;;;;;;;;;;;;;;;;;5049851;28;19940;-53
2023/12/04 04:19:24;;;;;;;;;;;;;;;;;;5048815;28;19921;-53
2023/12/04 04:21:50;;;;;;;;;;;;;;;;;;5048580;28;19923;-53
2023/12/04 04:24:16;;;;;;;;;;;;;;;;;;5049774;28;20020;-53
2023/12/04 04:26:42;;;;;;;;;;;;;;;;;;5048735;28;19959;-53
2023/12/04 04:29:09;;;;;;;;;;;;;;;;;;5049282;28;19971;-53
2023/12/04 04:31:35;;;;;;;;;;;;;;;;;;5049194;28;19970;-53
2023/12/04 04:34:01;;;;;;;;;;;;;;;;;;5049712;28;19925;-54
2023/12/04 04:36:27;;;;;;;;;;;;;;;;;;5048417;28;19960;-53
2023/12/04 04:38:53;;;;;;;;;;;;;;;;;;5048028;28;19944;-52
2023/12/04 04:41:19;;;;;;;;;;;;;;;;;;5054953;28;20008;-52
2023/12/04 04:43:45;;;;;;;;;;;;;;;;;;5055070;28;19979;-53
2023/12/04 04:46:11;;;;;;;;;;;;;;;;;;5048411;28;20696;-53
2023/12/04 04:48:37;;;;;;;;;;;;;;;;;;5049749;28;19979;-52
2023/12/04 04:51:03;;;;;;;;;;;;;;;;;;5054554;28;20431;-52
2023/12/04 04:53:28;;;;;;;;;;;;;;;;;;5063259;28;19923;-53
2023/12/04 04:55:54;;;;;;;;;;;;;;;;;;5054062;28;20058;-53
2023/12/04 04:58:20;;;;;;;;;;;;;;;;;;5053390;28;19975;-53
2023/12/04 05:00:49;;;;;;;;;;;;;;;;;;5052232;28;19963;-53
2023/12/04 05:03:15;;;;;;;;;;;;;;;;;;5053200;28;20301;-53
2023/12/04 05:05:41;;;;;;;;;;;;;;;;;;5052483;28;19944;-53
2023/12/04 05:08:07;;;;;;;;;;;;;;;;;;5050863;28;19959;-53
2023/12/04 05:10:33;;;;;;;;;;;;;;;;;;5051586;28;19952;-53
2023/12/04 05:12:59;;;;;;;;;;;;;;;;;;5052537;28;19948;-53
2023/12/04 05:15:25;;;;;;;;;;;;;;;;;;5053268;28;19927;-54
2023/12/04 05:17:51;;;;;;;;;;;;;;;;;;5053184;28;19920;-53
2023/12/04 05:20:17;;;;;;;;;;;;;;;;;;5052431;28;19917;-54
2023/12/04 05:22:43;;;;;;;;;;;;;;;;;;5052061;28;19987;-53
2023/12/04 05:25:08;;;;;;;;;;;;;;;;;;5052355;28;19998;-54
2023/12/04 05:27:34;;;;;;;;;;;;;;;;;;5051674;28;19955;-54
2023/12/04 05:30:00;;;;;;;;;;;;;;;;;;5052253;28;19963;-53
2023/12/04 05:32:26;;;;;;;;;;;;;;;;;;5052723;28;19952;-54
2023/12/04 05:34:52;;;;;;;;;;;;;;;;;;5052750;28;20454;-52
2023/12/04 05:37:18;;;;;;;;;;;;;;;;;;5056447;28;19916;-54
2023/12/04 05:39:44;;;;;;;;;;;;;;;;;;5056585;28;19980;-53
2023/12/04 05:42:10;;;;;;;;;;;;;;;;;;5084477;28;20274;-53
2023/12/04 05:44:36;;;;;;;;;;;;;;;;;;5051958;28;19967;-53
2023/12/04 05:47:02;;;;;;;;;;;;;;;;;;5052326;28;19963;-53
2023/12/04 05:49:29;;;;;;;;;;;;;;;;;;5052324;28;19912;-53
2023/12/04 05:51:55;;;;;;;;;;;;;;;;;;5051548;28;19916;-54
2023/12/04 05:54:21;;;;;;;;;;;;;;;;;;5054688;28;19971;-53
2023/12/04 05:56:47;;;;;;;;;;;;;;;;;;5052115;28;19948;-53
2023/12/04 05:59:12;;;;;;;;;;;;;;;;;;5051945;28;19967;-52
2023/12/04 06:01:38;;;;;;;;;;;;;;;;;;5052126;28;19975;-52
2023/12/04 06:04:04;;;;;;;;;;;;;;;;;;5051119;28;19958;-53
2023/12/04 06:06:30;;;;;;;;;;;;;;;;;;5050909;28;19998;-53
2023/12/04 06:08:56;;;;;;;;;;;;;;;;;;5051992;28;20476;-52
2023/12/04 06:11:22;;;;;;;;;;;;;;;;;;5052735;28;20386;-53
2023/12/04 06:13:48;;;;;;;;;;;;;;;;;;5052191;28;20018;-52
2023/12/04 06:16:14;;;;;;;;;;;;;;;;;;5052361;28;20174;-52
2023/12/04 06:18:40;;;;;;;;;;;;;;;;;;5052488;28;19960;-52
2023/12/04 06:21:06;;;;;;;;;;;;;;;;;;5051747;28;19948;-52
2023/12/04 06:23:32;;;;;;;;;;;;;;;;;;5051912;28;19956;-53
2023/12/04 06:25:58;;;;;;;;;;;;;;;;;;5050862;28;20279;-52
2023/12/04 06:28:24;;;;;;;;;;;;;;;;;;5051281;28;20389;-53
2023/12/04 06:30:50;;;;;;;;;;;;;;;;;;5050929;28;20424;-53
2023/12/04 06:33:18;;;;;;;;;;;;;;;;;;5048464;28;19948;-53
2023/12/04 06:35:44;;;;;;;;;;;;;;;;;;5046884;28;20398;-53
2023/12/04 06:38:10;;;;;;;;;;;;;;;;;;5050786;28;19960;-52
2023/12/04 06:40:36;;;;;;;;;;;;;;;;;;5046937;28;19959;-53
2023/12/04 06:43:02;;;;;;;;;;;;;;;;;;5053447;28;19912;-52
2023/12/04 06:45:28;;;;;;;;;;;;;;;;;;5060548;28;19956;-52
2023/12/04 06:47:54;;;;;;;;;;;;;;;;;;5065108;28;19920;-53
2023/12/04 06:50:20;;;;;;;;;;;;;;;;;;5051838;28;19979;-53
2023/12/04 06:52:46;;;;;;;;;;;;;;;;;;5050140;28;19948;-52
2023/12/04 06:55:12;;;;;;;;;;;;;;;;;;5049216;28;20231;-53
2023/12/04 06:57:38;;;;;;;;;;;;;;;;;;5058814;28;19924;-52
2023/12/04 07:00:06;;;;;;;;;;;;;;;;;;5052699;28;19959;-53
2023/12/04 07:02:32;;;;;;;;;;;;;;;;;;5059573;28;20102;-52
2023/12/04 07:04:58;;;;;;;;;;;;;;;;;;5051822;28;20377;-52
2023/12/04 07:07:24;;;;;;;;;;;;;;;;;;5058588;28;20396;-52
2023/12/04 07:09:50;;;;;;;;;;;;;;;;;;5047876;28;19963;-53
2023/12/04 07:12:16;;;;;;;;;;;;;;;;;;5050001;28;19951;-53
2023/12/04 07:14:41;;;;;;;;;;;;;;;;;;5053713;28;19967;-52
2023/12/04 07:17:07;;;;;;;;;;;;;;;;;;5058647;28;19947;-53
2023/12/04 07:19:33;;;;;;;;;;;;;;;;;;5050264;28;19972;-53
2023/12/04 07:22:00;;;;;;;;;;;;;;;;;;5057604;28;19921;-52
2023/12/04 07:24:26;;;;;;;;;;;;;;;;;;5054079;28;20387;-53
2023/12/04 07:26:52;;;;;;;;;;;;;;;;;;5049858;28;19913;-53
2023/12/04 07:29:18;;;;;;;;;;;;;;;;;;5052236;28;19963;-53
2023/12/04 07:31:44;;;;;;;;;;;;;;;;;;5050760;28;20396;-52
2023/12/04 07:34:10;;;;;;;;;;;;;;;;;;5050687;28;20049;-53
2023/12/04 07:36:36;;;;;;;;;;;;;;;;;;5049568;28;19967;-53
2023/12/04 07:39:06;;;;;;;;;;;;;;;;;;5053056;28;20379;-52
2023/12/04 07:41:32;;;;;;;;;;;;;;;;;;5048524;28;19916;-52
2023/12/04 07:43:58;;;;;;;;;;;;;;;;;;5051059;28;19919;-52
2023/12/04 07:46:23;;;;;;;;;;;;;;;;;;5059556;28;19963;-52
2023/12/04 07:48:49;;;;;;;;;;;;;;;;;;5056551;28;20549;-53
2023/12/04 07:51:16;;;;;;;;;;;;;;;;;;5051020;28;19923;-52
2023/12/04 07:53:42;;;;;;;;;;;;;;;;;;5060847;28;19925;-52
2023/12/04 07:56:07;;;;;;;;;;;;;;;;;;5049455;28;19954;-53
2023/12/04 07:58:33;;;;;;;;;;;;;;;;;;5060612;28;19959;-53
2023/12/04 08:00:59;;;;;;;;;;;;;;;;;;5053435;28;19963;-52
2023/12/04 08:03:25;;;;;;;;;;;;;;;;;;5056346;28;19959;-53
2023/12/04 08:05:51;;;;;;;;;;;;;;;;;;5056415;28;19964;-52
2023/12/04 08:08:17;;;;;;;;;;;;;;;;;;5052493;28;19913;-53
2023/12/04 08:10:43;;;;;;;;;;;;;;;;;;5053427;28;20454;-53
2023/12/04 08:13:09;;;;;;;;;;;;;;;;;;5057066;28;19974;-52
2023/12/04 08:15:35;;;;;;;;;;;;;;;;;;5048420;28;19963;-52
2023/12/04 08:18:02;;;;;;;;;;;;;;;;;;5048357;28;19960;-52
2023/12/04 08:20:28;;;;;;;;;;;;;;;;;;5049254;28;19916;-52
2023/12/04 08:22:54;;;;;;;;;;;;;;;;;;5048743;28;19998;-53
2023/12/04 08:25:20;;;;;;;;;;;;;;;;;;5048030;28;19917;-53
2023/12/04 08:27:47;;;;;;;;;;;;;;;;;;5047874;28;19999;-52
2023/12/04 08:30:13;;;;;;;;;;;;;;;;;;5048130;28;19947;-51
2023/12/04 08:32:39;;;;;;;;;;;;;;;;;;5048429;28;20538;-52
2023/12/04 08:35:06;;;;;;;;;;;;;;;;;;5054570;28;20489;-52
2023/12/04 08:37:32;;;;;;;;;;;;;;;;;;5051076;28;19944;-53
2023/12/04 08:39:58;;;;;;;;;;;;;;;;;;5048015;28;19963;-53
2023/12/04 08:42:23;;;;;;;;;;;;;;;;;;5049771;28;19963;-52
2023/12/04 08:44:49;;;;;;;;;;;;;;;;;;5049215;28;20310;-52
2023/12/04 08:47:15;;;;;;;;;;;;;;;;;;5048682;28;19917;-52
2023/12/04 08:49:41;;;;;;;;;;;;;;;;;;5049671;28;20024;-52
2023/12/04 08:52:07;;;;;;;;;;;;;;;;;;5056526;28;19919;-52
2023/12/04 08:54:34;;;;;;;;;;;;;;;;;;5066470;28;20046;-52
2023/12/04 08:57:00;;;;;;;;;;;;;;;;;;5048140;28;20007;-52
2023/12/04 08:59:25;;;;;;;;;;;;;;;;;;5059757;28;20012;-52
2023/12/04 09:01:51;;;;;;;;;;;;;;;;;;5054422;28;19947;-53
2023/12/04 09:04:17;;;;;;;;;;;;;;;;;;5056021;28;20329;-52
2023/12/04 09:06:43;;;;;;;;;;;;;;;;;;5048608;28;19933;-53
2023/12/04 09:09:09;;;;;;;;;;;;;;;;;;5059698;28;20355;-52
2023/12/04 09:11:35;;;;;;;;;;;;;;;;;;5056164;28;20291;-53
2023/12/04 09:14:01;;;;;;;;;;;;;;;;;;5048876;28;19963;-52
2023/12/04 09:16:27;;;;;;;;;;;;;;;;;;5046988;28;20368;-52
2023/12/04 09:18:53;;;;;;;;;;;;;;;;;;5049489;28;19913;-52
2023/12/04 09:21:19;;;;;;;;;;;;;;;;;;5052861;28;19944;-51
2023/12/04 09:23:49;;;;;;;;;;;;;;;;;;5058031;28;20010;-53
2023/12/04 09:26:15;;;;;;;;;;;;;;;;;;5056245;28;20230;-53
2023/12/04 09:28:41;;;;;;;;;;;;;;;;;;5051584;28;19959;-52
2023/12/04 09:31:07;;;;;;;;;;;;;;;;;;5058446;28;20005;-53
2023/12/04 09:33:33;;;;;;;;;;;;;;;;;;5047518;28;20257;-53
2023/12/04 09:35:59;;;;;;;;;;;;;;;;;;5048626;28;19913;-53
2023/12/04 09:38:25;;;;;;;;;;;;;;;;;;5046444;28;20003;-53
2023/12/04 09:40:51;;;;;;;;;;;;;;;;;;5049198;28;19960;-53
2023/12/04 09:43:17;;;;;;;;;;;;;;;;;;5055702;28;19958;-49
2023/12/04 09:45:43;;;;;;;;;;;;;;;;;;5057129;28;19958;-50
2023/12/04 09:48:09;;;;;;;;;;;;;;;;;;5052418;28;20407;-49
2023/12/04 09:50:35;;;;;;;;;;;;;;;;;;5050318;28;20280;-51
2023/12/04 09:53:02;;;;;;;;;;;;;;;;;;5046572;28;19987;-50
2023/12/04 09:55:27;;;;;;;;;;;;;;;;;;5072050;28;19940;-49
2023/12/04 09:57:53;;;;;;;;;;;;;;;;;;5060113;28;19964;-50
2023/12/04 10:00:19;;;;;;;;;;;;;;;;;;5070479;28;20012;-49
2023/12/04 10:02:45;;;;;;;;;;;;;;;;;;5053346;28;19951;-54
2023/12/04 10:05:11;;;;;;;;;;;;;;;;;;5061107;28;20080;-53
2023/12/04 10:07:37;;;;;;;;;;;;;;;;;;5051221;28;19959;-53
2023/12/04 10:10:07;;;;;;;;;;;;;;;;;;5055661;28;20249;-54
2023/12/04 10:12:33;;;;;;;;;;;;;;;;;;5054885;28;19916;-53
2023/12/04 10:14:59;;;;;;;;;;;;;;;;;;5053610;28;20304;-53
2023/12/04 10:17:25;;;;;;;;;;;;;;;;;;5051757;28;19959;-52
2023/12/04 10:19:51;;;;;;;;;;;;;;;;;;5068726;28;19956;-52
2023/12/04 10:22:17;;;;;;;;;;;;;;;;;;5055953;28;19955;-53
2023/12/04 10:24:43;;;;;;;;;;;;;;;;;;5051094;28;20400;-52
2023/12/04 10:27:12;;;;;;;;;;;;;;;;;;5052895;28;19970;-53
2023/12/04 10:29:38;;;;;;;;;;;;;;;;;;5062702;28;20378;-52
2023/12/04 10:32:04;;;;;;;;;;;;;;;;;;5055803;28;19995;-53
2023/12/04 10:34:32;;;;;;;;;;;;;;;;;;5067772;28;19927;-53
2023/12/04 10:36:58;;;;;;;;;;;;;;;;;;5070620;28;19913;-53
2023/12/04 10:39:28;;;;;;;;;;;;;;;;;;5064179;28;19912;-53
2023/12/04 10:41:54;;;;;;;;;;;;;;;;;;5048612;28;19920;-52
2023/12/04 10:44:20;;;;;;;;;;;;;;;;;;5051799;28;19909;-52
2023/12/04 10:46:47;;;;;;;;;;;;;;;;;;5063012;28;19913;-53
2023/12/04 10:49:14;;;;;;;;;;;;;;;;;;5059667;28;19912;-52
2023/12/04 10:51:40;;;;;;;;;;;;;;;;;;5060569;28;19960;-52
2023/12/04 10:54:06;;;;;;;;;;;;;;;;;;5059805;28;20232;-49
2023/12/04 10:56:32;;;;;;;;;;;;;;;;;;5069527;28;19967;-50
2023/12/04 10:58:58;;;;;;;;;;;;;;;;;;5057574;28;19917;-49
2023/12/04 11:01:24;;;;;;;;;;;;;;;;;;5066302;28;19958;-49
2023/12/04 11:03:49;;;;;;;;;;;;;;;;;;5058984;28;19959;-50
2023/12/04 11:06:15;;;;;;;;;;;;;;;;;;5050191;28;20240;-51
2023/12/04 11:08:41;;;;;;;;;;;;;;;;;;5061729;28;20206;-49
2023/12/04 11:11:07;;;;;;;;;;;;;;;;;;5054327;28;19917;-50
2023/12/04 11:13:33;;;;;;;;;;;;;;;;;;5052662;28;20374;-49
2023/12/04 11:15:59;;;;;;;;;;;;;;;;;;5052180;28;19916;-49
2023/12/04 11:18:26;;;;;;;;;;;;;;;;;;5057860;28;19967;-49
2023/12/04 11:20:52;;;;;;;;;;;;;;;;;;5054697;28;19923;-50
2023/12/04 11:23:18;;;;;;;;;;;;;;;;;;5061451;28;20287;-49
2023/12/04 11:25:44;;;;;;;;;;;;;;;;;;5047345;28;20395;-49
2023/12/04 11:28:10;;;;;;;;;;;;;;;;;;5049574;28;20415;-49
2023/12/04 11:30:36;;;;;;;;;;;;;;;;;;5050494;28;20368;-50
2023/12/04 11:33:02;;;;;;;;;;;;;;;;;;5055775;28;19932;-49
2023/12/04 11:35:28;;;;;;;;;;;;;;;;;;5050402;28;19913;-50
2023/12/04 11:37:54;;;;;;;;;;;;;;;;;;5053198;28;19947;-49
2023/12/04 11:40:20;;;;;;;;;;;;;;;;;;5061280;28;19913;-49
2023/12/04 11:42:47;;;;;;;;;;;;;;;;;;5057726;28;19975;-49
2023/12/04 11:45:13;;;;;;;;;;;;;;;;;;5051694;28;20357;-49
2023/12/04 11:47:39;;;;;;;;;;;;;;;;;;5052634;28;19948;-49
2023/12/04 11:50:05;;;;;;;;;;;;;;;;;;5058456;28;19963;-50
2023/12/04 11:52:31;;;;;;;;;;;;;;;;;;5052317;28;19971;-49
2023/12/04 11:54:59;;;;;;;;;;;;;;;;;;5055095;28;19959;-49
2023/12/04 11:57:26;;;;;;;;;;;;;;;;;;5059879;28;19928;-49
2023/12/04 11:59:52;;;;;;;;;;;;;;;;;;5053239;28;19921;-49
2023/12/04 12:02:18;;;;;;;;;;;;;;;;;;5052949;28;20454;-48
2023/12/04 12:04:45;;;;;;;;;;;;;;;;;;5051038;28;19970;-53
2023/12/04 12:07:11;;;;;;;;;;;;;;;;;;5051799;28;20366;-53
2023/12/04 12:09:37;;;;;;;;;;;;;;;;;;5050694;28;21150;-52
2023/12/04 12:12:03;;;;;;;;;;;;;;;;;;5058817;28;20368;-52
2023/12/04 12:14:30;;;;;;;;;;;;;;;;;;5050884;28;20396;-50
2023/12/04 12:16:55;;;;;;;;;;;;;;;;;;5052344;28;19920;-51
2023/12/04 12:19:21;;;;;;;;;;;;;;;;;;5049144;28;20281;-51
2023/12/04 12:21:49;;;;;;;;;;;;;;;;;;5057349;28;20407;-51
2023/12/04 12:24:15;;;;;;;;;;;;;;;;;;5052630;28;19921;-51
2023/12/04 12:26:40;;;;;;;;;;;;;;;;;;5065132;28;20357;-52
2023/12/04 12:29:06;;;;;;;;;;;;;;;;;;5053727;28;20380;-51
2023/12/04 12:31:32;;;;;;;;;;;;;;;;;;5052674;28;20407;-52
2023/12/04 12:33:58;;;;;;;;;;;;;;;;;;5064869;28;20372;-51
2023/12/04 12:36:24;;;;;;;;;;;;;;;;;;5061698;28;20284;-56
2023/12/04 12:38:50;;;;;;;;;;;;;;;;;;5058227;28;19948;-53
2023/12/04 12:41:16;;;;;;;;;;;;;;;;;;5050161;28;19923;-51
2023/12/04 12:43:42;;;;;;;;;;;;;;;;;;5052799;28;19947;-52
2023/12/04 12:46:09;;;;;;;;;;;;;;;;;;5046927;28;19917;-51
2023/12/04 12:48:35;;;;;;;;;;;;;;;;;;5047423;28;20531;-51
2023/12/04 12:51:01;;;;;;;;;;;;;;;;;;5047152;28;20004;-51
2023/12/04 12:53:27;;;;;;;;;;;;;;;;;;5054371;28;20015;-51
2023/12/04 12:55:52;;;;;;;;;;;;;;;;;;5059576;28;19968;-51
2023/12/04 12:58:20;;;;;;;;;;;;;;;;;;5049269;28;20352;-51
2023/12/04 13:00:46;;;;;;;;;;;;;;;;;;5052806;28;19917;-51
2023/12/04 13:03:12;;;;;;;;;;;;;;;;;;5053018;28;19921;-51
2023/12/04 13:05:38;;;;;;;;;;;;;;;;;;5051636;28;20371;-51
2023/12/04 13:08:04;;;;;;;;;;;;;;;;;;5050850;28;19952;-51
2023/12/04 13:10:30;;;;;;;;;;;;;;;;;;5051524;28;20280;-51
2023/12/04 13:12:57;;;;;;;;;;;;;;;;;;5045200;28;19956;-51
2023/12/04 13:15:23;;;;;;;;;;;;;;;;;;5052737;28;19920;-51
2023/12/04 13:17:49;;;;;;;;;;;;;;;;;;5051773;28;19940;-51
2023/12/04 13:20:16;;;;;;;;;;;;;;;;;;5049941;28;19978;-51
2023/12/04 13:22:41;;;;;;;;;;;;;;;;;;5051307;28;20384;-51
2023/12/04 13:25:09;;;;;;;;;;;;;;;;;;5049287;28;19948;-54
2023/12/04 13:27:38;;;;;;;;;;;;;;;;;;5054120;28;20462;-55
2023/12/04 13:30:04;;;;;;;;;;;;;;;;;;5050494;28;19919;-54
2023/12/04 13:32:30;;;;;;;;;;;;;;;;;;5051360;28;20361;-53
2023/12/04 13:34:56;;;;;;;;;;;;;;;;;;5050533;28;20428;-55
2023/12/04 13:37:23;;;;;;;;;;;;;;;;;;5050056;28;20396;-54
2023/12/04 13:39:51;;;;;;;;;;;;;;;;;;5050730;28;20310;-54
2023/12/04 13:45:02;;;;;;;;;;;;;;;;;;5050937;28;20446;-54
2023/12/04 13:47:28;;;;;;;;;;;;;;;;;;5048662;28;19919;-54
2023/12/04 13:49:55;;;;;;;;;;;;;;;;;;5051074;28;19920;-54
2023/12/04 13:52:23;;;;;;;;;;;;;;;;;;5049509;28;19971;-54
2023/12/04 13:54:49;;;;;;;;;;;;;;;;;;5051673;28;19916;-55
2023/12/04 13:57:21;;;;;;;;;;;;;;;;;;5051897;28;19921;-55
2023/12/04 13:59:47;;;;;;;;;;;;;;;;;;5051701;28;19912;-54
2023/12/04 14:02:14;;;;;;;;;;;;;;;;;;5051181;28;20337;-54
2023/12/04 14:04:40;;;;;;;;;;;;;;;;;;5052245;28;19912;-54
2023/12/04 14:07:08;;;;;;;;;;;;;;;;;;5051030;28;20392;-56
2023/12/04 14:09:35;;;;;;;;;;;;;;;;;;5051320;28;20006;-54
2023/12/04 14:12:01;;;;;;;;;;;;;;;;;;5052089;28;19917;-55
2023/12/04 14:14:27;;;;;;;;;;;;;;;;;;5051894;28;19920;-51
2023/12/04 14:16:53;;;;;;;;;;;;;;;;;;5052143;28;19955;-51
2023/12/04 14:19:21;;;;;;;;;;;;;;;;;;5052577;28;20002;-51
2023/12/04 14:21:48;;;;;;;;;;;;;;;;;;5064988;28;20132;-51
2023/12/04 14:24:14;;;;;;;;;;;;;;;;;;5066371;28;19927;-51
2023/12/04 14:26:40;;;;;;;;;;;;;;;;;;5051371;28;20280;-51
2023/12/04 14:29:07;;;;;;;;;;;;;;;;;;5051620;28;19939;-51
2023/12/04 14:31:33;;;;;;;;;;;;;;;;;;5051661;28;19908;-51
2023/12/04 14:33:59;;;;;;;;;;;;;;;;;;5051567;28;20486;-51
2023/12/04 14:36:27;;;;;;;;;;;;;;;;;;5051041;28;20329;-54
2023/12/04 14:38:53;;;;;;;;;;;;;;;;;;5051667;28;19921;-54
2023/12/04 14:41:19;;;;;;;;;;;;;;;;;;5051014;28;19959;-54
2023/12/04 14:43:45;;;;;;;;;;;;;;;;;;5051753;28;19967;-54
2023/12/04 14:46:11;;;;;;;;;;;;;;;;;;5051576;28;20363;-54
2023/12/04 14:48:37;;;;;;;;;;;;;;;;;;5050513;28;20019;-54
2023/12/04 14:51:03;;;;;;;;;;;;;;;;;;5051102;28;19999;-55
2023/12/04 14:53:40;;;;;;;;;;;;;;;;;;5051254;28;19921;-54
2023/12/04 14:59:42;;;;;;;;;;;;;;;;;;5050830;28;20356;-54
2023/12/04 15:15:00;;;;;;;;;;;;;;;;;;5046932;28;20430;-54
2023/12/04 15:17:43;;;;;;;;;;;;;;;;;;5048950;28;19916;-54
2023/12/04 15:22:36;;;;;;;;;;;;;;;;;;5045646;28;20041;-53
2023/12/04 15:25:02;;;;;;;;;;;;;;;;;;5045022;28;20406;-52
2023/12/04 15:27:28;;;;;;;;;;;;;;;;;;5052634;28;19952;-52
2023/12/04 15:29:54;;;;;;;;;;;;;;;;;;5051705;28;20028;-52
2023/12/04 15:32:21;;;;;;;;;;;;;;;;;;5053074;28;19956;-53
2023/12/04 15:34:47;;;;;;;;;;;;;;;;;;5053928;28;19926;-54
2023/12/04 15:37:12;;;;;;;;;;;;;;;;;;5049853;28;20011;-54
2023/12/04 15:39:39;;;;;;;;;;;;;;;;;;5048785;28;19982;-54
2023/12/04 15:42:06;;;;;;;;;;;;;;;;;;5081095;28;19925;-53
2023/12/04 15:44:32;;;;;;;;;;;;;;;;;;5052073;28;19912;-52
2023/12/04 15:47:01;;;;;;;;;;;;;;;;;;5058638;28;19920;-50
2023/12/04 15:49:27;;;;;;;;;;;;;;;;;;5051815;28;20360;-53
2023/12/04 15:51:53;;;;;;;;;;;;;;;;;;5052694;28;19968;-50
2023/12/04 15:54:18;;;;;;;;;;;;;;;;;;5055388;28;19983;-50
2023/12/04 15:56:44;;;;;;;;;;;;;;;;;;5054383;28;20058;-50
2023/12/04 15:59:10;;;;;;;;;;;;;;;;;;5046265;28;20115;-50
2023/12/04 16:01:36;;;;;;;;;;;;;;;;;;5055705;28;19982;-50
2023/12/04 16:04:03;;;;;;;;;;;;;;;;;;5053661;28;19917;-50
2023/12/04 16:06:29;;;;;;;;;;;;;;;;;;5050564;28;19916;-50
2023/12/04 16:08:57;;;;;;;;;;;;;;;;;;5053345;28;20577;-50
2023/12/04 16:11:23;;;;;;;;;;;;;;;;;;5054669;28;19912;-50
2023/12/04 16:13:49;;;;;;;;;;;;;;;;;;5055378;28;20447;-50
2023/12/04 16:16:15;;;;;;;;;;;;;;;;;;5050603;28;20362;-52
2023/12/04 16:18:41;;;;;;;;;;;;;;;;;;5050478;28;20392;-50
2023/12/04 16:21:07;;;;;;;;;;;;;;;;;;5053656;28;20309;-50
2023/12/04 16:23:33;;;;;;;;;;;;;;;;;;5060115;28;20380;-50
2023/12/04 16:25:59;;;;;;;;;;;;;;;;;;5054078;28;19956;-51
2023/12/04 16:28:25;;;;;;;;;;;;;;;;;;5050994;28;19912;-53
2023/12/04 16:30:51;;;;;;;;;;;;;;;;;;5044551;28;19968;-50
2023/12/04 16:33:17;;;;;;;;;;;;;;;;;;5051192;28;20393;-51
2023/12/04 16:35:43;;;;;;;;;;;;;;;;;;5053410;28;20007;-51
2023/12/04 16:38:09;;;;;;;;;;;;;;;;;;5050555;28;19956;-50
2023/12/04 16:40:35;;;;;;;;;;;;;;;;;;5048528;28;19959;-50
2023/12/04 16:43:01;;;;;;;;;;;;;;;;;;5048643;28;19967;-50
2023/12/04 16:45:27;;;;;;;;;;;;;;;;;;5048628;28;19951;-51
2023/12/04 16:47:53;;;;;;;;;;;;;;;;;;5049905;28;19916;-50
2023/12/04 16:50:19;;;;;;;;;;;;;;;;;;5052923;28;19924;-53
2023/12/04 16:52:45;;;;;;;;;;;;;;;;;;5053041;28;20019;-51
2023/12/04 16:55:11;;;;;;;;;;;;;;;;;;5057925;28;19926;-50
2023/12/04 16:57:37;;;;;;;;;;;;;;;;;;5053596;28;19917;-53
2023/12/04 17:00:04;;;;;;;;;;;;;;;;;;5053990;28;20016;-55